sensor_id;sensor_type;location;lat;lon;timestamp;temperature;humidity
39695;DHT22;25367;-35.352;149.036;2023-04-24T05:17:26;21.40;60.10
39695;DHT22;25367;-35.352;149.036;2023-04-24T05:19:57;21.50;59.90
39695;DHT22;25367;-35.352;149.036;2023-04-24T05:22:27;21.70;59.20
39695;DHT22;25367;-35.352;149.036;2023-04-24T05:24:57;21.80;58.90
39695;DHT22;25367;-35.352;149.036;2023-04-24T05:27:44;22.00;58.50
39695;DHT22;25367;-35.352;149.036;2023-04-24T05:30:17;22.10;58.30
39695;DHT22;25367;-35.352;149.036;2023-04-24T05:32:49;22.20;58.10
39695;DHT22;25367;-35.352;149.036;2023-04-24T05:35:18;22.40;58.00
39695;DHT22;25367;-35.352;149.036;2023-04-24T05:37:48;22.40;57.70
39695;DHT22;25367;-35.352;149.036;2023-04-24T05:40:18;22.50;57.40
39695;DHT22;25367;-35.352;149.036;2023-04-24T05:42:47;22.60;57.00
39695;DHT22;25367;-35.352;149.036;2023-04-24T05:45:17;22.60;56.30
39695;DHT22;25367;-35.352;149.036;2023-04-24T05:47:48;22.60;56.10
39695;DHT22;25367;-35.352;149.036;2023-04-24T05:50:18;22.70;56.30
39695;DHT22;25367;-35.352;149.036;2023-04-24T05:52:48;22.70;56.10
39695;DHT22;25367;-35.352;149.036;2023-04-24T05:55:27;22.80;56.30
39695;DHT22;25367;-35.352;149.036;2023-04-24T05:57:57;22.80;55.80
39695;DHT22;25367;-35.352;149.036;2023-04-24T06:00:27;22.80;55.50
39695;DHT22;25367;-35.352;149.036;2023-04-24T06:03:06;22.90;54.70
39695;DHT22;25367;-35.352;149.036;2023-04-24T06:05:35;22.90;54.40
39695;DHT22;25367;-35.352;149.036;2023-04-24T06:08:05;22.90;54.10
39695;DHT22;25367;-35.352;149.036;2023-04-24T06:10:38;22.90;54.40
39695;DHT22;25367;-35.352;149.036;2023-04-24T06:13:09;22.90;54.30
39695;DHT22;25367;-35.352;149.036;2023-04-24T06:15:42;22.90;54.00
39695;DHT22;25367;-35.352;149.036;2023-04-24T06:18:20;22.90;53.80
39695;DHT22;25367;-35.352;149.036;2023-04-24T06:20:50;22.90;53.60
39695;DHT22;25367;-35.352;149.036;2023-04-24T06:23:20;22.90;53.30
39695;DHT22;25367;-35.352;149.036;2023-04-24T06:25:50;22.90;53.30
39695;DHT22;25367;-35.352;149.036;2023-04-24T06:28:20;22.90;52.90
39695;DHT22;25367;-35.352;149.036;2023-04-24T06:30:49;22.90;53.00
39695;DHT22;25367;-35.352;149.036;2023-04-24T06:33:21;23.00;53.30
39695;DHT22;25367;-35.352;149.036;2023-04-24T06:35:50;23.00;53.00
39695;DHT22;25367;-35.352;149.036;2023-04-24T06:38:19;23.10;52.80
39695;DHT22;25367;-35.352;149.036;2023-04-24T06:40:49;23.10;53.40
39695;DHT22;25367;-35.352;149.036;2023-04-24T06:43:18;23.10;53.30
39695;DHT22;25367;-35.352;149.036;2023-04-24T06:45:48;23.10;53.30
39695;DHT22;25367;-35.352;149.036;2023-04-24T06:48:19;23.10;53.20
39695;DHT22;25367;-35.352;149.036;2023-04-24T06:50:48;23.20;53.10
39695;DHT22;25367;-35.352;149.036;2023-04-24T06:53:18;23.20;53.00
39695;DHT22;25367;-35.352;149.036;2023-04-24T06:55:47;23.20;52.90
39695;DHT22;25367;-35.352;149.036;2023-04-24T06:58:17;23.20;52.90
39695;DHT22;25367;-35.352;149.036;2023-04-24T07:00:46;23.30;53.00
39695;DHT22;25367;-35.352;149.036;2023-04-24T07:03:16;23.30;52.90
39695;DHT22;25367;-35.352;149.036;2023-04-24T07:05:47;23.30;52.90
39695;DHT22;25367;-35.352;149.036;2023-04-24T07:08:17;23.30;52.90
39695;DHT22;25367;-35.352;149.036;2023-04-24T07:10:46;23.30;52.80
39695;DHT22;25367;-35.352;149.036;2023-04-24T07:13:16;23.30;52.80
39695;DHT22;25367;-35.352;149.036;2023-04-24T07:15:45;23.30;52.80
39695;DHT22;25367;-35.352;149.036;2023-04-24T07:18:14;23.30;53.00
39695;DHT22;25367;-35.352;149.036;2023-04-24T07:20:45;23.30;53.10
39695;DHT22;25367;-35.352;149.036;2023-04-24T07:23:15;23.30;53.20
39695;DHT22;25367;-35.352;149.036;2023-04-24T07:25:44;23.40;53.30
39695;DHT22;25367;-35.352;149.036;2023-04-24T07:28:14;23.40;53.30
39695;DHT22;25367;-35.352;149.036;2023-04-24T07:30:43;23.40;53.00
39695;DHT22;25367;-35.352;149.036;2023-04-24T07:33:13;23.40;53.10
39695;DHT22;25367;-35.352;149.036;2023-04-24T07:35:42;23.40;53.00
39695;DHT22;25367;-35.352;149.036;2023-04-24T07:38:14;23.40;53.10
39695;DHT22;25367;-35.352;149.036;2023-04-24T07:40:43;23.40;53.20
39695;DHT22;25367;-35.352;149.036;2023-04-24T07:43:13;23.40;53.10
39695;DHT22;25367;-35.352;149.036;2023-04-24T07:45:42;23.40;53.00
39695;DHT22;25367;-35.352;149.036;2023-04-24T07:48:12;23.40;52.90
39695;DHT22;25367;-35.352;149.036;2023-04-24T07:50:41;23.40;53.10
39695;DHT22;25367;-35.352;149.036;2023-04-24T07:53:13;23.40;53.00
39695;DHT22;25367;-35.352;149.036;2023-04-24T07:55:42;23.50;53.20
39695;DHT22;25367;-35.352;149.036;2023-04-24T07:58:12;23.50;53.20
39695;DHT22;25367;-35.352;149.036;2023-04-24T08:00:41;23.40;53.20
39695;DHT22;25367;-35.352;149.036;2023-04-24T08:03:11;23.50;53.40
39695;DHT22;25367;-35.352;149.036;2023-04-24T08:05:40;23.50;53.40
39695;DHT22;25367;-35.352;149.036;2023-04-24T08:08:10;23.50;53.40
39695;DHT22;25367;-35.352;149.036;2023-04-24T08:10:42;23.50;53.40
39695;DHT22;25367;-35.352;149.036;2023-04-24T08:13:12;23.50;53.30
39695;DHT22;25367;-35.352;149.036;2023-04-24T08:15:41;23.50;53.40
39695;DHT22;25367;-35.352;149.036;2023-04-24T08:18:11;23.50;53.40
39695;DHT22;25367;-35.352;149.036;2023-04-24T08:20:40;23.60;53.50
39695;DHT22;25367;-35.352;149.036;2023-04-24T08:23:10;23.50;53.50
39695;DHT22;25367;-35.352;149.036;2023-04-24T08:25:42;23.60;53.50
39695;DHT22;25367;-35.352;149.036;2023-04-24T08:28:12;23.60;53.60
39695;DHT22;25367;-35.352;149.036;2023-04-24T08:30:41;23.60;53.70
39695;DHT22;25367;-35.352;149.036;2023-04-24T08:33:11;23.60;53.70
39695;DHT22;25367;-35.352;149.036;2023-04-24T08:35:40;23.60;53.70
39695;DHT22;25367;-35.352;149.036;2023-04-24T08:38:09;23.60;53.90
39695;DHT22;25367;-35.352;149.036;2023-04-24T08:40:41;23.50;53.70
39695;DHT22;25367;-35.352;149.036;2023-04-24T08:43:11;23.60;53.80
39695;DHT22;25367;-35.352;149.036;2023-04-24T08:45:41;23.60;53.80
39695;DHT22;25367;-35.352;149.036;2023-04-24T08:48:11;23.60;53.80
39695;DHT22;25367;-35.352;149.036;2023-04-24T08:50:41;23.60;53.90
39695;DHT22;25367;-35.352;149.036;2023-04-24T08:53:11;23.60;53.90
39695;DHT22;25367;-35.352;149.036;2023-04-24T08:55:45;23.60;53.90
39695;DHT22;25367;-35.352;149.036;2023-04-24T08:58:16;23.60;53.90
39695;DHT22;25367;-35.352;149.036;2023-04-24T09:00:46;23.60;53.90
39695;DHT22;25367;-35.352;149.036;2023-04-24T09:03:16;23.60;54.00
39695;DHT22;25367;-35.352;149.036;2023-04-24T09:05:47;23.60;54.00
39695;DHT22;25367;-35.352;149.036;2023-04-24T09:08:18;23.60;54.00
39695;DHT22;25367;-35.352;149.036;2023-04-24T09:10:50;23.60;54.10
39695;DHT22;25367;-35.352;149.036;2023-04-24T09:13:20;23.50;54.10
39695;DHT22;25367;-35.352;149.036;2023-04-24T09:15:49;23.60;54.20
39695;DHT22;25367;-35.352;149.036;2023-04-24T09:18:19;23.50;54.20
39695;DHT22;25367;-35.352;149.036;2023-04-24T09:21:02;23.50;54.20
39695;DHT22;25367;-35.352;149.036;2023-04-24T09:23:33;23.50;54.20
39695;DHT22;25367;-35.352;149.036;2023-04-24T09:26:04;23.50;54.20
39695;DHT22;25367;-35.352;149.036;2023-04-24T09:28:36;23.50;54.20
39695;DHT22;25367;-35.352;149.036;2023-04-24T09:31:07;23.50;54.30
39695;DHT22;25367;-35.352;149.036;2023-04-24T09:33:37;23.50;54.40
39695;DHT22;25367;-35.352;149.036;2023-04-24T09:36:06;23.50;54.40
39695;DHT22;25367;-35.352;149.036;2023-04-24T09:38:37;23.50;54.40
39695;DHT22;25367;-35.352;149.036;2023-04-24T09:41:08;23.50;54.40
39695;DHT22;25367;-35.352;149.036;2023-04-24T09:43:42;23.50;54.40
39695;DHT22;25367;-35.352;149.036;2023-04-24T09:46:11;23.60;54.40
39695;DHT22;25367;-35.352;149.036;2023-04-24T09:48:41;23.60;54.40
39695;DHT22;25367;-35.352;149.036;2023-04-24T09:51:10;23.60;54.40
39695;DHT22;25367;-35.352;149.036;2023-04-24T09:53:46;23.60;54.30
39695;DHT22;25367;-35.352;149.036;2023-04-24T09:56:21;23.60;54.50
39695;DHT22;25367;-35.352;149.036;2023-04-24T09:58:54;23.60;54.50
39695;DHT22;25367;-35.352;149.036;2023-04-24T10:01:31;23.60;54.60
39695;DHT22;25367;-35.352;149.036;2023-04-24T10:04:02;23.60;54.60
39695;DHT22;25367;-35.352;149.036;2023-04-24T10:06:35;23.60;54.60
39695;DHT22;25367;-35.352;149.036;2023-04-24T10:09:05;23.60;54.60
39695;DHT22;25367;-35.352;149.036;2023-04-24T10:11:37;23.60;54.50
39695;DHT22;25367;-35.352;149.036;2023-04-24T10:14:07;23.60;54.50
39695;DHT22;25367;-35.352;149.036;2023-04-24T10:16:38;23.60;54.50
39695;DHT22;25367;-35.352;149.036;2023-04-24T10:19:08;23.70;54.60
39695;DHT22;25367;-35.352;149.036;2023-04-24T10:21:37;23.60;54.50
39695;DHT22;25367;-35.352;149.036;2023-04-24T10:24:07;23.70;54.50
39695;DHT22;25367;-35.352;149.036;2023-04-24T10:26:41;23.70;54.50
39695;DHT22;25367;-35.352;149.036;2023-04-24T10:29:12;23.70;54.60
39695;DHT22;25367;-35.352;149.036;2023-04-24T10:31:42;23.70;54.50
39695;DHT22;25367;-35.352;149.036;2023-04-24T10:34:12;23.70;54.60
39695;DHT22;25367;-35.352;149.036;2023-04-24T10:36:48;23.70;54.60
39695;DHT22;25367;-35.352;149.036;2023-04-24T10:39:21;23.70;54.60
39695;DHT22;25367;-35.352;149.036;2023-04-24T10:41:54;23.70;54.60
39695;DHT22;25367;-35.352;149.036;2023-04-24T10:44:24;23.70;54.60
39695;DHT22;25367;-35.352;149.036;2023-04-24T10:46:54;23.70;54.60
39695;DHT22;25367;-35.352;149.036;2023-04-24T10:49:30;23.70;54.60
39695;DHT22;25367;-35.352;149.036;2023-04-24T10:52:02;23.70;54.60
39695;DHT22;25367;-35.352;149.036;2023-04-24T10:54:35;23.70;54.60
39695;DHT22;25367;-35.352;149.036;2023-04-24T10:57:28;23.70;54.60
39695;DHT22;25367;-35.352;149.036;2023-04-24T11:00:21;23.80;54.70
39695;DHT22;25367;-35.352;149.036;2023-04-24T11:02:53;23.80;54.80
39695;DHT22;25367;-35.352;149.036;2023-04-24T11:05:48;23.70;54.60
39695;DHT22;25367;-35.352;149.036;2023-04-24T11:09:09;23.80;54.20
39695;DHT22;25367;-35.352;149.036;2023-04-24T11:11:43;23.80;54.60
39695;DHT22;25367;-35.352;149.036;2023-04-24T11:14:15;23.80;54.50
39695;DHT22;25367;-35.352;149.036;2023-04-24T11:16:45;23.70;54.50
39695;DHT22;25367;-35.352;149.036;2023-04-24T11:19:22;23.80;54.50
39695;DHT22;25367;-35.352;149.036;2023-04-24T11:21:58;23.80;54.60
39695;DHT22;25367;-35.352;149.036;2023-04-24T11:24:31;23.80;54.50
39695;DHT22;25367;-35.352;149.036;2023-04-24T11:27:06;23.70;54.40
39695;DHT22;25367;-35.352;149.036;2023-04-24T11:29:46;23.80;54.40
39695;DHT22;25367;-35.352;149.036;2023-04-24T11:32:23;23.80;54.50
39695;DHT22;25367;-35.352;149.036;2023-04-24T11:34:55;23.80;54.30
39695;DHT22;25367;-35.352;149.036;2023-04-24T11:37:26;23.80;54.30
39695;DHT22;25367;-35.352;149.036;2023-04-24T11:39:59;23.80;54.20
39695;DHT22;25367;-35.352;149.036;2023-04-24T11:42:29;23.80;54.20
39695;DHT22;25367;-35.352;149.036;2023-04-24T11:45:09;23.80;54.20
39695;DHT22;25367;-35.352;149.036;2023-04-24T11:47:39;23.80;54.20
39695;DHT22;25367;-35.352;149.036;2023-04-24T20:09:24;19.00;57.40
39695;DHT22;25367;-35.352;149.036;2023-04-24T20:11:53;19.00;58.40
39695;DHT22;25367;-35.352;149.036;2023-04-24T20:14:26;19.10;58.30
39695;DHT22;25367;-35.352;149.036;2023-04-24T20:16:55;19.30;58.00
39695;DHT22;25367;-35.352;149.036;2023-04-24T20:19:25;19.40;57.70
39695;DHT22;25367;-35.352;149.036;2023-04-24T20:21:57;19.50;57.50
39695;DHT22;25367;-35.352;149.036;2023-04-24T20:24:30;19.60;57.20
39695;DHT22;25367;-35.352;149.036;2023-04-24T20:26:59;19.70;57.10
39695;DHT22;25367;-35.352;149.036;2023-04-24T20:29:29;19.70;57.00
39695;DHT22;25367;-35.352;149.036;2023-04-24T20:31:59;19.80;56.90
39695;DHT22;25367;-35.352;149.036;2023-04-24T20:34:28;19.90;56.70
39695;DHT22;25367;-35.352;149.036;2023-04-24T20:36:57;19.90;56.60
39695;DHT22;25367;-35.352;149.036;2023-04-24T20:39:30;19.90;56.60
39695;DHT22;25367;-35.352;149.036;2023-04-24T20:41:59;20.00;56.40
39695;DHT22;25367;-35.352;149.036;2023-04-24T20:44:28;20.00;56.30
39695;DHT22;25367;-35.352;149.036;2023-04-24T20:46:58;20.00;56.20
39695;DHT22;25367;-35.352;149.036;2023-04-24T20:49:27;20.10;56.10
39695;DHT22;25367;-35.352;149.036;2023-04-24T20:51:57;20.10;56.10
39695;DHT22;25367;-35.352;149.036;2023-04-24T20:54:28;20.10;56.00
39695;DHT22;25367;-35.352;149.036;2023-04-24T20:56:58;20.10;56.00
39695;DHT22;25367;-35.352;149.036;2023-04-24T20:59:27;20.10;55.90
39695;DHT22;25367;-35.352;149.036;2023-04-24T21:01:57;20.20;55.80
39695;DHT22;25367;-35.352;149.036;2023-04-24T21:04:26;20.20;55.80
39695;DHT22;25367;-35.352;149.036;2023-04-24T21:06:55;20.20;55.70
39695;DHT22;25367;-35.352;149.036;2023-04-24T21:09:27;20.20;55.60
39695;DHT22;25367;-35.352;149.036;2023-04-24T21:11:56;20.30;55.60
39695;DHT22;25367;-35.352;149.036;2023-04-24T21:14:25;20.30;55.60
39695;DHT22;25367;-35.352;149.036;2023-04-24T21:16:55;20.30;55.50
39695;DHT22;25367;-35.352;149.036;2023-04-24T21:19:25;20.30;55.40
39695;DHT22;25367;-35.352;149.036;2023-04-24T21:21:54;20.30;55.30
39695;DHT22;25367;-35.352;149.036;2023-04-24T21:24:23;20.30;55.20
39695;DHT22;25367;-35.352;149.036;2023-04-24T21:26:55;20.30;55.20
39695;DHT22;25367;-35.352;149.036;2023-04-24T21:29:25;20.30;55.20
39695;DHT22;25367;-35.352;149.036;2023-04-24T21:31:54;20.30;55.20
39695;DHT22;25367;-35.352;149.036;2023-04-24T21:34:23;20.30;55.10
39695;DHT22;25367;-35.352;149.036;2023-04-24T21:36:52;20.30;55.20
39695;DHT22;25367;-35.352;149.036;2023-04-24T21:39:22;20.30;55.20
39695;DHT22;25367;-35.352;149.036;2023-04-24T21:41:53;20.40;55.40
39695;DHT22;25367;-35.352;149.036;2023-04-24T21:44:23;20.40;55.30
39695;DHT22;25367;-35.352;149.036;2023-04-24T21:46:52;20.40;55.40
39695;DHT22;25367;-35.352;149.036;2023-04-24T21:49:22;20.50;55.50
39695;DHT22;25367;-35.352;149.036;2023-04-24T21:51:51;20.40;55.30
39695;DHT22;25367;-35.352;149.036;2023-04-24T21:54:23;20.40;55.30
39695;DHT22;25367;-35.352;149.036;2023-04-24T21:56:54;20.40;55.30
39695;DHT22;25367;-35.352;149.036;2023-04-24T21:59:24;20.50;55.30
39695;DHT22;25367;-35.352;149.036;2023-04-24T22:01:53;20.50;55.30
39695;DHT22;25367;-35.352;149.036;2023-04-24T22:04:23;20.50;55.30
39695;DHT22;25367;-35.352;149.036;2023-04-24T22:06:53;20.50;55.30
39695;DHT22;25367;-35.352;149.036;2023-04-24T22:09:22;20.50;55.30
39695;DHT22;25367;-35.352;149.036;2023-04-24T22:11:51;20.50;55.30
39695;DHT22;25367;-35.352;149.036;2023-04-24T22:14:23;20.60;55.40
39695;DHT22;25367;-35.352;149.036;2023-04-24T22:16:55;20.60;55.40
39695;DHT22;25367;-35.352;149.036;2023-04-24T22:19:25;20.60;55.60
39695;DHT22;25367;-35.352;149.036;2023-04-24T22:21:54;20.60;55.50
39695;DHT22;25367;-35.352;149.036;2023-04-24T22:24:24;20.60;55.90
39695;DHT22;25367;-35.352;149.036;2023-04-24T22:26:53;20.60;55.60
39695;DHT22;25367;-35.352;149.036;2023-04-24T22:29:24;20.60;55.70
39695;DHT22;25367;-35.352;149.036;2023-04-24T22:31:54;20.60;55.90
39695;DHT22;25367;-35.352;149.036;2023-04-24T22:34:23;20.60;56.00
39695;DHT22;25367;-35.352;149.036;2023-04-24T22:36:52;20.60;56.00
39695;DHT22;25367;-35.352;149.036;2023-04-24T22:39:22;20.70;56.10
39695;DHT22;25367;-35.352;149.036;2023-04-24T22:41:51;20.70;56.20
39695;DHT22;25367;-35.352;149.036;2023-04-24T22:44:23;20.80;56.20
39695;DHT22;25367;-35.352;149.036;2023-04-24T22:46:52;20.80;56.20
39695;DHT22;25367;-35.352;149.036;2023-04-24T22:49:22;20.80;56.30
39695;DHT22;25367;-35.352;149.036;2023-04-24T22:51:51;20.80;56.30
39695;DHT22;25367;-35.352;149.036;2023-04-24T22:54:20;20.80;56.50
39695;DHT22;25367;-35.352;149.036;2023-04-24T22:56:50;20.90;56.60
39695;DHT22;25367;-35.352;149.036;2023-04-24T22:59:19;21.00;56.60
39695;DHT22;25367;-35.352;149.036;2023-04-24T23:01:51;21.00;56.60
39695;DHT22;25367;-35.352;149.036;2023-04-24T23:04:20;21.00;56.60
39695;DHT22;25367;-35.352;149.036;2023-04-24T23:06:49;21.10;56.60
39695;DHT22;25367;-35.352;149.036;2023-04-24T23:09:19;21.10;56.60
39695;DHT22;25367;-35.352;149.036;2023-04-24T23:11:48;21.10;56.70
39695;DHT22;25367;-35.352;149.036;2023-04-24T23:14:18;21.20;56.80
39695;DHT22;25367;-35.352;149.036;2023-04-24T23:16:50;21.20;57.00
39695;DHT22;25367;-35.352;149.036;2023-04-24T23:19:19;21.20;57.20
39695;DHT22;25367;-35.352;149.036;2023-04-24T23:21:49;21.30;57.20
39695;DHT22;25367;-35.352;149.036;2023-04-24T23:24:19;21.30;57.20
39695;DHT22;25367;-35.352;149.036;2023-04-24T23:26:48;21.40;57.30
39695;DHT22;25367;-35.352;149.036;2023-04-24T23:29:18;21.40;57.30
39695;DHT22;25367;-35.352;149.036;2023-04-24T23:31:50;21.50;57.30
39695;DHT22;25367;-35.352;149.036;2023-04-24T23:34:20;21.50;57.20
39695;DHT22;25367;-35.352;149.036;2023-04-24T23:36:49;21.50;57.30
39695;DHT22;25367;-35.352;149.036;2023-04-24T23:39:19;21.50;57.20
39695;DHT22;25367;-35.352;149.036;2023-04-24T23:41:49;21.60;57.30
39695;DHT22;25367;-35.352;149.036;2023-04-24T23:44:18;21.60;57.40
39695;DHT22;25367;-35.352;149.036;2023-04-24T23:46:49;21.70;57.50
39695;DHT22;25367;-35.352;149.036;2023-04-24T23:49:21;21.70;57.50
39695;DHT22;25367;-35.352;149.036;2023-04-24T23:51:51;21.70;57.40
39695;DHT22;25367;-35.352;149.036;2023-04-24T23:54:20;21.80;57.40
39695;DHT22;25367;-35.352;149.036;2023-04-24T23:56:50;21.80;56.80
39695;DHT22;25367;-35.352;149.036;2023-04-24T23:59:19;21.90;57.10
